createdAt,value
2018-09-12T00:01:27.252Z,99.80
2018-09-12T00:03:55.645Z,99.90
2018-09-12T00:06:23.702Z,99.90
2018-09-12T00:08:51.799Z,99.90
2018-09-12T00:11:19.873Z,99.90
2018-09-12T00:13:48.168Z,99.90
2018-09-12T00:16:16.181Z,99.90
2018-09-12T00:18:44.498Z,99.90
2018-09-12T00:21:12.577Z,99.90
2018-09-12T00:23:40.593Z,99.90
2018-09-12T00:26:08.701Z,99.90
2018-09-12T00:28:37.012Z,99.90
2018-09-12T00:31:05.149Z,99.90
2018-09-12T00:33:33.368Z,99.90
2018-09-12T00:36:01.422Z,99.90
2018-09-12T00:38:29.481Z,99.90
2018-09-12T00:40:57.509Z,99.90
2018-09-12T00:43:25.632Z,99.90
2018-09-12T00:45:53.800Z,99.90
2018-09-12T00:48:21.850Z,99.90
2018-09-12T00:50:49.901Z,99.90
2018-09-12T00:53:17.939Z,99.90
2018-09-12T00:55:45.981Z,99.90
2018-09-12T00:58:14.054Z,99.90
2018-09-12T01:00:42.141Z,99.90
2018-09-12T01:03:10.177Z,99.90
2018-09-12T01:05:41.229Z,99.90
2018-09-12T01:08:10.476Z,99.90
2018-09-12T01:10:38.767Z,99.90
2018-09-12T01:13:06.913Z,99.90
2018-09-12T01:15:35.185Z,99.90
2018-09-12T01:18:03.486Z,99.90
2018-09-12T01:20:31.737Z,99.90
2018-09-12T01:22:59.989Z,99.90
2018-09-12T01:25:28.102Z,99.90
2018-09-12T01:27:56.726Z,99.90
2018-09-12T01:30:25.033Z,99.90
2018-09-12T01:32:56.008Z,99.90
2018-09-12T01:35:24.056Z,99.90
2018-09-12T01:37:52.149Z,99.90
2018-09-12T01:40:20.209Z,99.90
2018-09-12T01:42:48.289Z,99.90
2018-09-12T01:45:17.941Z,99.90
2018-09-12T01:47:46.176Z,99.90
2018-09-12T01:50:14.551Z,99.90
2018-09-12T01:52:42.593Z,99.90
2018-09-12T01:55:10.701Z,99.90
2018-09-12T01:57:38.772Z,99.90
2018-09-12T02:00:10.063Z,99.90
2018-09-12T02:02:38.222Z,99.90
2018-09-12T02:05:06.337Z,99.90
2018-09-12T02:07:35.065Z,99.90
2018-09-12T02:10:03.137Z,99.90
2018-09-12T02:12:31.205Z,99.90
2018-09-12T02:14:59.268Z,99.90
2018-09-12T02:17:27.345Z,99.90
2018-09-12T02:19:55.383Z,99.90
2018-09-12T02:22:23.490Z,99.90
2018-09-12T02:24:51.548Z,99.90
2018-09-12T02:27:19.595Z,99.90
2018-09-12T02:29:47.714Z,99.90
2018-09-12T02:32:15.981Z,99.90
2018-09-12T02:34:44.048Z,99.90
2018-09-12T02:37:12.124Z,99.90
2018-09-12T02:39:40.193Z,99.90
2018-09-12T02:42:08.228Z,99.90
2018-09-12T02:44:36.349Z,99.90
2018-09-12T02:47:08.887Z,99.90
2018-09-12T02:49:37.001Z,99.90
2018-09-12T02:52:05.070Z,99.90
2018-09-12T02:54:33.143Z,99.90
2018-09-12T02:57:01.253Z,99.90
2018-09-12T02:59:29.389Z,99.90
2018-09-12T03:01:57.454Z,99.90
2018-09-12T03:04:25.632Z,99.90
2018-09-12T03:06:53.722Z,99.90
2018-09-12T03:09:21.790Z,99.90
2018-09-12T03:11:49.854Z,99.90
2018-09-12T03:14:18.037Z,99.90
2018-09-12T03:16:46.098Z,99.90
2018-09-12T03:19:14.169Z,99.90
2018-09-12T03:21:42.243Z,99.90
2018-09-12T03:24:10.309Z,99.90
2018-09-12T03:26:38.339Z,99.90
2018-09-12T03:29:06.468Z,99.90
2018-09-12T03:31:34.545Z,99.90
2018-09-12T03:34:02.618Z,99.90
2018-09-12T03:36:30.681Z,99.90
2018-09-12T03:38:58.725Z,99.90
2018-09-12T03:41:26.821Z,99.90
2018-09-12T03:43:54.901Z,99.90
2018-09-12T03:46:22.920Z,99.90
2018-09-12T03:48:50.973Z,99.90
2018-09-12T03:51:19.042Z,99.90
2018-09-12T03:53:47.087Z,99.90
2018-09-12T03:56:15.159Z,99.90
2018-09-12T03:58:43.210Z,99.90
2018-09-12T04:01:11.236Z,99.90
2018-09-12T04:03:44.577Z,99.90
2018-09-12T04:06:13.446Z,99.90
2018-09-12T04:08:41.810Z,99.90
2018-09-12T04:11:10.453Z,99.90
2018-09-12T04:13:38.675Z,99.90
2018-09-12T04:16:06.925Z,99.90
2018-09-12T04:18:35.474Z,99.90
2018-09-12T04:21:03.505Z,99.90
2018-09-12T04:23:32.137Z,99.90
2018-09-12T04:26:01.087Z,99.90
2018-09-12T04:28:29.231Z,99.90
2018-09-12T04:30:57.450Z,99.90
2018-09-12T04:33:25.621Z,99.90
2018-09-12T04:35:53.793Z,99.90
2018-09-12T04:38:21.865Z,99.90
2018-09-12T04:40:49.931Z,99.90
2018-09-12T04:43:18.455Z,99.90
2018-09-12T04:45:46.517Z,99.90
2018-09-12T04:48:14.579Z,99.90
2018-09-12T04:50:42.683Z,99.90
2018-09-12T04:53:10.762Z,99.90
2018-09-12T04:55:38.906Z,99.90
2018-09-12T04:58:07.009Z,99.90
2018-09-12T05:00:35.037Z,99.90
2018-09-12T05:03:03.113Z,99.90
2018-09-12T05:05:31.319Z,99.90
2018-09-12T05:07:59.487Z,99.90
2018-09-12T05:10:27.525Z,99.90
2018-09-12T05:12:55.721Z,99.90
2018-09-12T05:15:23.808Z,99.90
2018-09-12T05:17:51.846Z,99.90
2018-09-12T05:20:19.922Z,99.90
2018-09-12T05:22:47.955Z,99.90
2018-09-12T05:25:17.320Z,99.90
2018-09-12T05:27:45.345Z,99.90
2018-09-12T05:30:13.419Z,99.90
2018-09-12T05:32:41.493Z,99.90
2018-09-12T05:35:09.547Z,99.90
2018-09-12T05:37:37.584Z,99.90
2018-09-12T05:40:05.922Z,99.90
2018-09-12T05:42:33.961Z,99.90
2018-09-12T05:45:02.105Z,99.90
2018-09-12T05:47:30.131Z,99.90
2018-09-12T05:49:58.225Z,99.90
2018-09-12T05:52:26.385Z,99.90
2018-09-12T05:54:54.466Z,99.90
2018-09-12T05:57:22.642Z,99.90
2018-09-12T05:59:50.819Z,99.90
2018-09-12T06:02:18.877Z,99.90
2018-09-12T06:04:46.970Z,99.90
2018-09-12T06:07:15.230Z,99.90
2018-09-12T06:09:43.290Z,99.90
2018-09-12T06:12:11.358Z,99.90
2018-09-12T06:14:39.385Z,99.90
2018-09-12T06:17:07.438Z,99.90
2018-09-12T06:19:35.615Z,99.90
2018-09-12T06:22:03.682Z,99.90
2018-09-12T06:24:31.811Z,99.90
2018-09-12T06:26:59.833Z,99.90
2018-09-12T06:29:28.019Z,99.90
2018-09-12T06:31:56.058Z,99.90
2018-09-12T06:34:24.133Z,99.90
2018-09-12T06:36:52.160Z,99.90
2018-09-12T06:39:20.293Z,99.90
2018-09-12T06:41:48.341Z,99.90
2018-09-12T06:44:16.387Z,99.90
2018-09-12T06:46:44.432Z,99.90
2018-09-12T06:49:12.515Z,99.90
2018-09-12T06:51:40.704Z,99.90
2018-09-12T06:54:09.069Z,99.90
2018-09-12T06:56:37.252Z,99.90
2018-09-12T06:59:05.269Z,99.90
2018-09-12T07:01:33.356Z,99.90
2018-09-12T07:04:01.425Z,99.90
2018-09-12T07:06:29.448Z,99.90
2018-09-12T07:08:57.513Z,99.90
2018-09-12T07:11:25.550Z,99.90
2018-09-12T07:13:53.733Z,99.90
2018-09-12T07:16:21.757Z,99.90
2018-09-12T07:18:50.131Z,99.90
2018-09-12T07:21:18.249Z,99.90
2018-09-12T07:23:46.447Z,99.90
2018-09-12T07:26:14.616Z,99.90
2018-09-12T07:28:42.776Z,99.90
2018-09-12T07:31:10.968Z,99.90
2018-09-12T07:33:39.249Z,99.90
2018-09-12T07:36:07.433Z,99.90
2018-09-12T07:38:35.496Z,99.90
2018-09-12T07:41:03.684Z,99.90
2018-09-12T07:43:31.697Z,99.90
2018-09-12T07:45:59.761Z,99.90
2018-09-12T07:48:27.873Z,99.90
2018-09-12T07:50:55.937Z,99.90
2018-09-12T07:53:24.001Z,99.90
2018-09-12T07:55:52.117Z,99.90
2018-09-12T07:58:20.242Z,99.90
2018-09-12T08:00:48.401Z,99.90
2018-09-12T08:03:16.495Z,99.90
2018-09-12T08:05:44.523Z,99.90
2018-09-12T08:08:12.610Z,99.90
2018-09-12T08:10:40.797Z,99.90
2018-09-12T08:13:08.958Z,99.90
2018-09-12T08:15:37.033Z,99.90
2018-09-12T08:18:05.224Z,99.90
2018-09-12T08:20:33.264Z,99.90
2018-09-12T08:23:01.361Z,99.90
2018-09-12T08:25:29.454Z,99.90
2018-09-12T08:27:57.481Z,99.90
2018-09-12T08:30:25.534Z,99.90
2018-09-12T08:32:53.599Z,99.90
2018-09-12T08:35:21.648Z,99.90
2018-09-12T08:37:49.703Z,99.90
2018-09-12T08:40:18.698Z,99.90
2018-09-12T08:42:46.754Z,99.90
2018-09-12T08:45:14.850Z,99.90
2018-09-12T08:47:42.922Z,99.90
2018-09-12T08:50:10.965Z,99.90
2018-09-12T08:52:39.346Z,99.90
2018-09-12T08:55:07.525Z,99.90
2018-09-12T08:57:35.687Z,99.90
2018-09-12T09:00:03.795Z,99.90
2018-09-12T09:02:32.001Z,99.90
2018-09-12T09:05:00.109Z,99.90
2018-09-12T09:07:28.169Z,99.90
2018-09-12T09:09:56.209Z,99.90
2018-09-12T09:12:24.338Z,99.90
2018-09-12T09:14:52.405Z,99.90
2018-09-12T09:17:20.588Z,99.90
2018-09-12T09:19:48.639Z,99.90
2018-09-12T09:22:16.696Z,99.90
2018-09-12T09:24:44.819Z,99.90
2018-09-12T09:27:12.853Z,99.90
2018-09-12T09:29:41.215Z,99.90
2018-09-12T09:32:09.239Z,99.90
2018-09-12T09:34:37.339Z,99.90
2018-09-12T09:37:05.420Z,99.90
2018-09-12T09:39:33.457Z,99.90
2018-09-12T09:42:01.502Z,99.90
2018-09-12T09:44:29.541Z,99.90
2018-09-12T09:46:57.581Z,99.90
2018-09-12T09:49:25.652Z,99.90
2018-09-12T09:51:53.703Z,99.90
2018-09-12T09:54:21.757Z,99.90
2018-09-12T09:56:49.801Z,99.90
2018-09-12T09:59:17.902Z,99.90
2018-09-12T10:01:51.549Z,99.90
2018-09-12T10:04:22.506Z,99.90
2018-09-12T10:06:56.305Z,99.90
2018-09-12T10:09:30.298Z,99.90
2018-09-12T10:11:58.771Z,99.90
2018-09-12T10:14:26.733Z,99.90
2018-09-12T10:16:54.773Z,99.90
2018-09-12T10:19:22.837Z,99.90
2018-09-12T10:21:50.892Z,99.90
2018-09-12T10:24:19.023Z,99.90
2018-09-12T10:26:47.061Z,99.90
2018-09-12T10:29:15.587Z,99.90
2018-09-12T10:31:43.758Z,99.90
2018-09-12T10:34:11.872Z,99.90
2018-09-12T10:36:39.881Z,99.90
2018-09-12T10:39:09.109Z,99.90
2018-09-12T10:41:37.187Z,99.90
2018-09-12T10:44:05.282Z,99.90
2018-09-12T10:46:33.345Z,99.90
2018-09-12T10:49:01.486Z,99.50
2018-09-12T10:51:29.505Z,99.20
2018-09-12T10:53:57.626Z,99.10
2018-09-12T10:56:25.680Z,99.10
2018-09-12T10:58:53.908Z,98.80
2018-09-12T11:01:21.917Z,98.70
2018-09-12T11:03:50.025Z,98.10
2018-09-12T11:06:18.058Z,98.00
2018-09-12T11:08:46.129Z,97.90
2018-09-12T11:11:14.225Z,96.90
2018-09-12T11:13:42.301Z,96.50
2018-09-12T11:16:10.353Z,96.30
2018-09-12T11:18:38.427Z,95.80
2018-09-12T11:21:06.611Z,96.10
2018-09-12T11:23:34.650Z,96.30
2018-09-12T11:26:02.728Z,96.40
2018-09-12T11:28:30.801Z,96.40
2018-09-12T11:30:58.869Z,96.30
2018-09-12T11:33:26.949Z,95.80
2018-09-12T11:35:55.025Z,95.50
2018-09-12T11:38:23.070Z,95.70
2018-09-12T11:40:51.119Z,95.90
2018-09-12T11:43:19.169Z,95.80
2018-09-12T11:45:47.241Z,95.60
2018-09-12T11:48:15.313Z,94.80
2018-09-12T11:50:43.383Z,94.30
2018-09-12T11:53:11.427Z,94.00
2018-09-12T11:55:39.589Z,93.70
2018-09-12T11:58:07.665Z,93.00
2018-09-12T12:00:35.867Z,92.40
2018-09-12T12:03:03.955Z,91.10
2018-09-12T12:05:32.010Z,91.30
2018-09-12T12:08:00.054Z,90.80
2018-09-12T12:10:28.097Z,89.40
2018-09-12T12:12:56.292Z,87.40
2018-09-12T12:15:24.378Z,83.20
2018-09-12T12:17:52.388Z,82.80
2018-09-12T12:20:20.525Z,83.00
2018-09-12T12:22:48.615Z,82.20
2018-09-12T12:25:16.752Z,79.90
2018-09-12T12:27:44.794Z,78.50
2018-09-12T12:30:12.923Z,77.10
2018-09-12T12:32:40.945Z,77.50
2018-09-12T12:35:09.002Z,77.60
2018-09-12T12:37:37.077Z,76.60
2018-09-12T12:40:05.214Z,74.00
2018-09-12T12:42:33.257Z,70.60
2018-09-12T12:45:01.325Z,71.00
2018-09-12T12:47:29.453Z,70.90
2018-09-12T12:49:57.501Z,70.00
2018-09-12T12:52:25.567Z,71.30
2018-09-12T12:54:53.750Z,72.60
2018-09-12T12:57:21.816Z,73.20
2018-09-12T12:59:49.854Z,73.60
2018-09-12T13:02:17.909Z,73.70
2018-09-12T13:04:46.005Z,73.70
2018-09-12T13:07:14.056Z,74.70
2018-09-12T13:09:42.129Z,72.90
2018-09-12T13:12:10.316Z,73.90
2018-09-12T13:14:38.401Z,74.80
2018-09-12T13:17:06.476Z,80.10
2018-09-12T13:19:34.599Z,85.40
2018-09-12T13:22:02.748Z,88.70
2018-09-12T13:24:30.813Z,90.40
2018-09-12T13:26:58.918Z,91.40
2018-09-12T13:29:26.972Z,91.50
2018-09-12T13:31:55.125Z,91.90
2018-09-12T13:34:23.193Z,91.10
2018-09-12T13:36:51.387Z,89.80
2018-09-12T13:39:19.434Z,88.50
2018-09-12T13:41:47.525Z,84.80
2018-09-12T13:44:15.610Z,78.40
2018-09-12T13:46:43.647Z,73.60
2018-09-12T13:49:12.373Z,71.70
2018-09-12T13:51:40.421Z,72.20
2018-09-12T13:54:08.657Z,74.60
2018-09-12T13:56:37.214Z,78.10
2018-09-12T13:59:05.244Z,82.70
2018-09-12T14:01:33.285Z,83.30
2018-09-12T14:04:01.366Z,78.00
2018-09-12T14:06:29.418Z,75.50
2018-09-12T14:08:57.609Z,71.40
2018-09-12T14:11:25.678Z,66.80
2018-09-12T14:13:53.803Z,62.20
2018-09-12T14:16:21.850Z,61.70
2018-09-12T14:18:49.877Z,60.50
2018-09-12T14:21:17.980Z,59.50
2018-09-12T14:23:46.029Z,64.40
2018-09-12T14:26:14.125Z,66.60
2018-09-12T14:28:42.172Z,68.70
2018-09-12T14:31:10.220Z,71.20
2018-09-12T14:33:38.569Z,72.40
2018-09-12T14:36:06.621Z,72.40
2018-09-12T14:38:34.680Z,72.10
2018-09-12T14:41:02.797Z,73.60
2018-09-12T14:43:31.112Z,75.70
2018-09-12T14:45:59.136Z,77.20
2018-09-12T14:48:27.422Z,79.50
2018-09-12T14:50:55.475Z,81.60
2018-09-12T14:53:23.537Z,84.70
2018-09-12T14:55:51.565Z,86.20
2018-09-12T14:58:19.910Z,86.40
2018-09-12T15:00:51.633Z,86.30
2018-09-12T15:03:19.762Z,88.80
2018-09-12T15:05:47.835Z,88.70
2018-09-12T15:08:15.915Z,90.00
2018-09-12T15:10:43.977Z,90.70
2018-09-12T15:13:12.044Z,91.40
2018-09-12T15:15:40.123Z,92.50
2018-09-12T15:18:08.169Z,93.10
2018-09-12T15:20:36.239Z,93.80
2018-09-12T15:23:04.292Z,95.00
2018-09-12T15:25:32.337Z,96.10
2018-09-12T15:28:00.505Z,97.20
2018-09-12T15:30:28.645Z,98.80
2018-09-12T15:32:56.703Z,99.70
2018-09-12T15:35:24.765Z,99.90
2018-09-12T15:37:52.878Z,99.90
2018-09-12T15:40:20.952Z,99.90
2018-09-12T15:42:49.021Z,99.90
2018-09-12T15:45:17.058Z,99.90
2018-09-12T15:47:45.107Z,99.90
2018-09-12T15:50:13.313Z,99.90
2018-09-12T15:52:41.420Z,99.90
2018-09-12T15:55:10.588Z,99.90
2018-09-12T15:57:38.695Z,99.90
2018-09-12T16:00:06.693Z,99.90
2018-09-12T16:02:34.810Z,99.90
2018-09-12T16:05:02.850Z,99.90
2018-09-12T16:07:30.918Z,99.90
2018-09-12T16:09:58.957Z,99.90
2018-09-12T16:12:27.014Z,99.90
2018-09-12T16:14:55.090Z,99.90
2018-09-12T16:17:23.254Z,99.90
2018-09-12T16:19:51.398Z,99.90
2018-09-12T16:22:19.664Z,99.90
2018-09-12T16:24:47.721Z,99.90
2018-09-12T16:27:15.996Z,99.90
2018-09-12T16:29:44.033Z,99.90
2018-09-12T16:32:12.091Z,99.90
2018-09-12T16:34:40.109Z,99.90
2018-09-12T16:37:08.231Z,99.90
2018-09-12T16:39:36.293Z,99.90
2018-09-12T16:42:04.450Z,99.90
2018-09-12T16:44:32.521Z,99.90
2018-09-12T16:47:00.564Z,99.90
2018-09-12T16:49:28.702Z,99.90
2018-09-12T16:51:56.758Z,99.90
2018-09-12T16:54:24.813Z,99.90
2018-09-12T16:56:53.814Z,99.90
2018-09-12T16:59:22.188Z,99.90
2018-09-12T17:01:50.217Z,99.90
2018-09-12T17:04:18.366Z,99.90
2018-09-12T17:06:46.376Z,99.90
2018-09-12T17:09:14.581Z,99.90
2018-09-12T17:11:42.617Z,99.90
2018-09-12T17:14:10.964Z,99.90
2018-09-12T17:16:38.998Z,99.90
2018-09-12T17:19:07.384Z,99.90
2018-09-12T17:21:35.457Z,99.90
2018-09-12T17:24:03.530Z,99.90
2018-09-12T17:26:31.605Z,99.90
2018-09-12T17:28:59.822Z,99.90
2018-09-12T17:31:28.117Z,99.90
2018-09-12T17:33:56.245Z,99.90
2018-09-12T17:36:24.302Z,99.90
2018-09-12T17:38:52.505Z,99.90
2018-09-12T17:41:20.552Z,99.90
2018-09-12T17:43:48.735Z,99.90
2018-09-12T17:46:16.754Z,99.90
2018-09-12T17:48:44.870Z,99.90
2018-09-12T17:51:12.969Z,99.90
2018-09-12T17:53:41.005Z,99.90
2018-09-12T17:56:09.148Z,99.90
2018-09-12T17:58:37.143Z,99.90
2018-09-12T18:01:05.190Z,99.90
2018-09-12T18:03:33.277Z,99.90
2018-09-12T18:06:01.776Z,99.90
2018-09-12T18:08:29.961Z,99.90
2018-09-12T18:10:58.256Z,99.90
2018-09-12T18:13:26.195Z,99.90
2018-09-12T18:15:54.249Z,99.90
2018-09-12T18:18:22.326Z,99.90
2018-09-12T18:20:50.381Z,99.90
2018-09-12T18:23:18.500Z,99.90
2018-09-12T18:25:46.533Z,99.90
2018-09-12T18:28:14.595Z,99.90
2018-09-12T18:30:43.018Z,99.90
2018-09-12T18:33:11.099Z,99.90
2018-09-12T18:35:39.169Z,99.90
2018-09-12T18:38:07.193Z,99.90
2018-09-12T18:40:35.272Z,99.90
2018-09-12T18:43:03.732Z,99.90
2018-09-12T18:45:31.970Z,99.90
2018-09-12T18:48:00.014Z,99.90
2018-09-12T18:50:28.193Z,99.90
2018-09-12T18:52:56.367Z,99.90
2018-09-12T18:55:24.461Z,99.90
2018-09-12T18:57:52.547Z,99.90
2018-09-12T19:00:20.650Z,99.90
2018-09-12T19:02:48.796Z,99.90
2018-09-12T19:05:16.965Z,99.90
2018-09-12T19:07:45.052Z,99.90
2018-09-12T19:10:13.139Z,99.90
2018-09-12T19:12:41.323Z,99.90
2018-09-12T19:15:09.471Z,99.90
2018-09-12T19:17:37.798Z,99.90
2018-09-12T19:20:05.995Z,99.90
2018-09-12T19:22:34.222Z,99.90
2018-09-12T19:25:02.322Z,99.90
2018-09-12T19:27:30.729Z,99.90
2018-09-12T19:29:59.012Z,99.90
2018-09-12T19:32:27.077Z,99.90
2018-09-12T19:34:55.126Z,99.90
2018-09-12T19:37:23.198Z,99.90
2018-09-12T19:39:51.277Z,99.90
2018-09-12T19:42:19.366Z,99.90
2018-09-12T19:44:47.490Z,99.90
2018-09-12T19:47:15.548Z,99.90
2018-09-12T19:49:43.692Z,99.90
2018-09-12T19:52:11.782Z,99.90
2018-09-12T19:54:39.913Z,99.90
2018-09-12T19:57:07.972Z,99.90
2018-09-12T19:59:36.289Z,99.90
2018-09-12T20:02:04.625Z,99.90
2018-09-12T20:04:32.832Z,99.90
2018-09-12T20:07:01.190Z,99.90
2018-09-12T20:09:29.233Z,99.90
2018-09-12T20:11:57.355Z,99.90
2018-09-12T20:14:25.481Z,99.90
2018-09-12T20:16:53.485Z,99.90
2018-09-12T20:19:21.533Z,99.90
2018-09-12T20:21:49.641Z,99.90
2018-09-12T20:24:17.742Z,99.90
2018-09-12T20:26:45.750Z,99.90
2018-09-12T20:29:13.861Z,99.90
2018-09-12T20:31:42.267Z,99.90
2018-09-12T20:34:10.321Z,99.90
2018-09-12T20:36:38.381Z,99.90
2018-09-12T20:39:07.612Z,99.90
2018-09-12T20:41:35.760Z,99.90
2018-09-12T20:44:03.826Z,99.90
2018-09-12T20:46:31.896Z,99.90
2018-09-12T20:48:59.943Z,99.90
2018-09-12T20:51:28.077Z,99.90
2018-09-12T20:53:56.075Z,99.90
2018-09-12T20:56:24.292Z,99.90
2018-09-12T20:58:52.599Z,99.90
2018-09-12T21:01:20.625Z,99.90
2018-09-12T21:03:48.738Z,99.90
2018-09-12T21:06:16.849Z,99.90
2018-09-12T21:08:44.898Z,99.90
2018-09-12T21:11:12.982Z,99.90
2018-09-12T21:13:41.244Z,99.90
2018-09-12T21:16:09.890Z,99.90
2018-09-12T21:18:38.237Z,99.90
2018-09-12T21:21:06.448Z,99.90
2018-09-12T21:23:34.694Z,99.90
2018-09-12T21:26:02.779Z,99.90
2018-09-12T21:28:30.904Z,99.90
2018-09-12T21:30:59.040Z,99.90
2018-09-12T21:33:27.277Z,99.90
2018-09-12T21:35:55.357Z,99.90
2018-09-12T21:38:23.385Z,99.90
2018-09-12T21:40:51.434Z,99.90
2018-09-12T21:43:19.947Z,99.90
2018-09-12T21:45:48.101Z,99.90
2018-09-12T21:48:16.150Z,99.90
2018-09-12T21:50:44.189Z,99.90
2018-09-12T21:53:12.243Z,99.90
2018-09-12T21:55:40.305Z,99.90
2018-09-12T21:58:08.393Z,99.90
2018-09-12T22:00:36.446Z,99.90
2018-09-12T22:03:04.514Z,99.90
2018-09-12T22:05:32.566Z,99.90
2018-09-12T22:08:00.744Z,99.90
2018-09-12T22:10:28.727Z,99.90
2018-09-12T22:12:56.770Z,99.90
2018-09-12T22:15:24.871Z,99.90
2018-09-12T22:17:52.943Z,99.90
2018-09-12T22:20:20.989Z,99.90
2018-09-12T22:22:49.105Z,99.90
2018-09-12T22:25:17.234Z,99.90
2018-09-12T22:27:45.287Z,99.90
2018-09-12T22:30:13.322Z,99.90
2018-09-12T22:32:41.442Z,99.90
2018-09-12T22:35:09.465Z,99.90
2018-09-12T22:37:37.537Z,99.90
2018-09-12T22:40:05.589Z,99.90
2018-09-12T22:42:33.626Z,99.90
2018-09-12T22:45:01.653Z,99.90
2018-09-12T22:47:29.737Z,99.90
2018-09-12T22:49:57.785Z,99.90
2018-09-12T22:52:25.905Z,99.90
2018-09-12T22:54:53.909Z,99.90
2018-09-12T22:57:22.052Z,99.90
2018-09-12T22:59:50.059Z,99.90
2018-09-12T23:02:18.125Z,99.90
2018-09-12T23:04:46.189Z,99.90
2018-09-12T23:07:14.317Z,99.90
2018-09-12T23:09:42.466Z,99.90
2018-09-12T23:12:10.562Z,99.90
2018-09-12T23:14:38.662Z,99.90
2018-09-12T23:17:06.727Z,99.90
2018-09-12T23:19:34.815Z,99.90
2018-09-12T23:22:02.867Z,99.90
2018-09-12T23:24:30.939Z,99.90
2018-09-12T23:26:58.977Z,99.90
2018-09-12T23:29:27.055Z,99.90
2018-09-12T23:31:55.145Z,99.90
2018-09-12T23:34:23.189Z,99.90
2018-09-12T23:36:51.381Z,99.90
2018-09-12T23:39:19.464Z,99.90
2018-09-12T23:41:47.538Z,99.90
2018-09-12T23:44:15.611Z,99.90
2018-09-12T23:46:43.655Z,99.90
2018-09-12T23:49:11.733Z,99.90
2018-09-12T23:51:39.781Z,99.90
2018-09-12T23:54:07.873Z,99.90
2018-09-12T23:56:35.941Z,99.90
2018-09-12T23:59:04.065Z,99.90
